• Join FlightAware (Why Join?)
  • Login
  • US Flag 
02:18AM EDT


 

Airport Tracker/Info


-or-


 

Live Flight TrackerFlight Track Log ✈ VIR19 ✈ 18-Mar-2014 ✈ EGLL / LHR - KSFO

Flight Track Log - Related Links

Times and Time Zones

All times are in EDT time to prevent confusion due to time zone crossing. See the VIR19 flight status page for this flight to view local times or setup timezone preferences in your user account.

Time Position Orientation Groundspeed Altitude Reporting Facility
EDT Latitude Longitude Course Direction KTS MPH feet Rate Location/Type
07:32AM 51.4777 -0.4666 271° West 160 184 100  Level FlightAware ADS-B
07:33AM 51.4777 -0.4856 272° West 160 184 600 2,340 Climbing FlightAware ADS-B
07:33AM 51.4777 -0.4346 270° West 160 184 1,000 1,980 Climbing FlightAware ADS-B
07:33AM 51.4777 -0.5021 269° West 161 185 1,100 1,560 Climbing FlightAware ADS-B
07:33AM 51.4773 -0.5210 269° West 160 184 1,600 1,860 Climbing FlightAware ADS-B
07:33AM 51.4772 -0.5293 269° West 161 185 1,800 1,680 Climbing FlightAware ADS-B
07:33AM 51.4771 -0.5389 270° West 164 189 2,000 1,080 Climbing FlightAware ADS-B
07:34AM 51.4772 -0.5426 272° West 170 196 2,000  Level FlightAware ADS-B
07:34AM 51.4772 -0.5439 275° West 173 199 2,000 960 Level FlightAware ADS-B (EGTR / ETR)
07:34AM 51.4778 -0.5504 281° West 178 205 2,100 1,200 Climbing FlightAware ADS-B
07:34AM 51.4779 -0.5516 282° West 179 206 2,100  Level FlightAware ADS-B
07:34AM 51.4787 -0.5556 288° West 185 213 2,100 1,500 Level FlightAware ADS-B
07:34AM 51.4792 -0.5581 292° West 190 219 2,200 1,500 Climbing FlightAware ADS-B
07:34AM 51.4799 -0.5607 293° West 192 221 2,200 480 Level FlightAware ADS-B
07:34AM 51.4840 -0.5727 299° West 206 237 2,300 900 Climbing FlightAware ADS-B
07:34AM 51.4851 -0.5768 300° West 209 241 2,400 1,620 Climbing FlightAware ADS-B
07:34AM 51.4894 -0.5891 300° West 213 245 2,600 1,200 Climbing FlightAware ADS-B
07:34AM 51.4930 -0.5988 300° West 219 252 2,700 780 Climbing FlightAware ADS-B
07:34AM 51.4971 -0.6105 299° West 227 261 2,800 660 Climbing FlightAware ADS-B
07:34AM 51.4973 -0.6104 299° West 229 264 2,800 840 Level FlightAware ADS-B
07:34AM 51.5004 -0.6195 299° West 232 267 2,900 1,500 Climbing FlightAware ADS-B
07:35AM 51.5034 -0.6286 298° West 234 269 3,100 2,400 Climbing FlightAware ADS-B
07:35AM 51.5031 -0.6286 298° West 238 274 3,300 1,980 Climbing FlightAware ADS-B (EGTR / ETR)
07:35AM 51.5084 -0.6441 298° West 242 278 3,400 1,080 Climbing FlightAware ADS-B
07:35AM 51.5113 -0.6521 298° West 245 282 3,500 1,620 Climbing FlightAware ADS-B
07:35AM 51.5141 -0.6600 301° West 249 287 3,700 1,980 Climbing FlightAware ADS-B
07:35AM 51.5173 -0.6677 308° West 254 292 3,800 2,220 Climbing FlightAware ADS-B
07:35AM 51.5203 -0.6733 315° West 259 298 4,000 2,400 Climbing FlightAware ADS-B
07:35AM 51.5212 -0.6745 318° Northwest 262 302 4,000  Level FlightAware ADS-B
07:35AM 51.5233 -0.6770 322° Northwest 265 305 4,000 1,980 Level FlightAware ADS-B
07:35AM 51.5267 -0.6801 329° Northwest 270 311 4,200 2,400 Climbing FlightAware ADS-B
07:35AM 51.5284 -0.6812 331° Northwest 277 319 4,200 3,000 Level FlightAware ADS-B
07:35AM 51.5321 -0.6843 340° North 273 314 4,400 3,960 Climbing FlightAware ADS-B
07:35AM 51.5344 -0.6856 344° North 274 315 4,600 4,800 Climbing FlightAware ADS-B
07:35AM 51.5376 -0.6866 347° North 275 316 4,800 3,960 Climbing FlightAware ADS-B
07:35AM 51.5389 -0.6871 347° North 274 315 4,800 3,000 Level FlightAware ADS-B
07:35AM 51.5431 -0.6889 348° North 276 318 5,000 3,000 Climbing FlightAware ADS-B
07:35AM 51.5473 -0.6899 352° North 280 322 5,100 1,980 Climbing FlightAware ADS-B
07:35AM 51.5504 -0.6904 355° North 282 325 5,200 1,980 Climbing FlightAware ADS-B
07:36AM 51.5553 -0.6908 359° North 288 331 5,300 1,500 Climbing FlightAware ADS-B
07:36AM 51.5546 -0.6908 359° North 288 331 5,300  Level FlightAware ADS-B (EGLF / FAB)
07:36AM 51.5573 -0.6908 North 291 335 5,300 1,980 Level FlightAware ADS-B
07:36AM 51.5599 -0.6908 North 291 335 5,400 1,980 Climbing FlightAware ADS-B
07:36AM 51.5604 -0.6908 North 292 336 5,400 2,520 Level FlightAware ADS-B
07:36AM 51.5779 -0.6897 North 293 337 6,000 3,000 Climbing FlightAware ADS-B
07:36AM 51.5800 -0.6896 North 292 336 6,100 3,960 Climbing FlightAware ADS-B
07:36AM 51.5814 -0.6895 North 292 336 6,200 2,160 Climbing FlightAware ADS-B (EGTR / ETR)
07:36AM 51.5959 -0.6893 North 292 336 6,500 1,980 Climbing FlightAware ADS-B
07:36AM 51.5982 -0.6893 North 293 337 6,600 1,500 Climbing FlightAware ADS-B
07:36AM 51.6001 -0.6893 360° North 292 336 6,600 1,200 Level FlightAware ADS-B
07:36AM 51.6053 -0.6894 359° North 294 338 6,700 1,380 Climbing FlightAware ADS-B
07:36AM 51.6176 -0.6899 358° North 290 334 6,900 1,200 Climbing FlightAware ADS-B
07:36AM 51.6254 -0.6904 358° North 289 333 7,000 420 Climbing FlightAware ADS-B
07:37AM 51.6353 -0.6910 357° North 286 329 7,000  Level FlightAware ADS-B
07:37AM 51.6487 -0.6922 357° North 286 329 7,000  Level FlightAware ADS-B (EGLC / LCY)
07:37AM 51.6555 -0.6927 358° North 286 329 7,000  Level FlightAware ADS-B
07:37AM 51.6595 -0.6930 358° North 285 328 7,000  Level FlightAware ADS-B
07:37AM 51.6694 -0.6936 358° North 275 316 7,000  Level FlightAware ADS-B (EGHO)
07:37AM 51.6757 -0.6941 357° North 283 326 7,000  Level FlightAware ADS-B
07:37AM 51.6899 -0.6953 357° North 282 325 7,000  Level FlightAware ADS-B
07:37AM 51.7003 -0.6961 357° North 281 323 7,000  Level FlightAware ADS-B
07:37AM 51.7090 -0.6968 357° North 280 322 7,000  Level FlightAware ADS-B (EGLC / LCY)
07:38AM 51.7202 -0.6977 357° North 281 323 7,000  Level FlightAware ADS-B
07:38AM 51.7263 -0.6982 357° North 283 326 7,000  Level FlightAware ADS-B
07:38AM 51.7414 -0.6995 357° North 286 329 7,000  Level FlightAware ADS-B
07:38AM 51.7484 -0.7002 357° North 286 329 7,000  Level FlightAware ADS-B (EGLC / LCY)
07:38AM 51.7625 -0.7013 357° North 285 328 7,000  Level FlightAware ADS-B
07:38AM 51.7709 -0.7020 357° North 285 328 7,000  Level FlightAware ADS-B (EGLF / FAB)
07:38AM 51.7824 -0.7028 357° North 286 329 7,000  Level FlightAware ADS-B
07:39AM 51.7936 -0.7037 357° North 285 328 7,000  Level FlightAware ADS-B (EGLC / LCY)
07:39AM 51.8026 -0.7046 357° North 287 330 7,000 1,200 Level FlightAware ADS-B
07:39AM 51.8097 -0.7051 357° North 289 333 7,300 2,580 Climbing FlightAware ADS-B (EGLF / FAB)
07:39AM 51.8244 -0.7063 358° North 289 333 7,700 2,400 Climbing FlightAware ADS-B
07:39AM 51.8311 -0.7068 358° North 289 333 7,900 2,220 Climbing FlightAware ADS-B (EGLC / LCY)
07:39AM 51.8450 -0.7077 357° North 290 334 8,300 2,400 Climbing FlightAware ADS-B
07:39AM 51.8597 -0.7088 358° North 290 334 8,700 2,400 Climbing FlightAware ADS-B (EGLC / LCY)
07:39AM 51.8655 -0.7091 358° North 290 334 8,900 1,980 Climbing FlightAware ADS-B
07:40AM 51.8766 -0.7097 358° North 294 338 9,200 1,680 Climbing FlightAware ADS-B (EGLF / FAB)
07:40AM 51.8847 -0.7101 359° North 297 342 9,300 2,220 Climbing FlightAware ADS-B
07:40AM 51.8907 -0.7100 North 300 345 9,500 1,500 Climbing FlightAware ADS-B
07:40AM 51.8952 -0.7095 North 306 352 9,500 840 Level FlightAware ADS-B
07:40AM 51.9014 -0.7075 13° North 315 362 9,600 1,680 Climbing FlightAware ADS-B
07:40AM 51.9054 -0.7057 17° North 320 368 9,700 1,980 Climbing FlightAware ADS-B
07:40AM 51.9098 -0.7033 20° North 323 372 9,800 1,980 Climbing FlightAware ADS-B
07:40AM 51.9153 -0.6996 24° Northeast 327 376 10,000 2,100 Climbing FlightAware ADS-B (EGLC / LCY)
07:40AM 51.9294 -0.6894 25° Northeast 329 379 10,300 1,320 Climbing FlightAware ADS-B (EGLF / FAB)
07:40AM 51.9482 -0.6751 25° Northeast 344 396 10,500 780 Climbing FlightAware ADS-B
07:41AM 51.9705 -0.6583 25° Northeast 360 414 10,700 780 Climbing FlightAware ADS-B (EGLC / LCY)
07:41AM 51.9938 -0.6414 24° Northeast 372 428 10,900 720 Climbing FlightAware ADS-B
07:41AM 52.0064 -0.6321 24° Northeast 381 438 11,000 960 Climbing FlightAware ADS-B (EGLF / FAB)
07:41AM 52.0433 -0.6046 24° Northeast 396 456 11,400 1,080 Climbing FlightAware ADS-B
07:42AM 52.0648 -0.5914 19° North 400 460 11,600 900 Climbing FlightAware ADS-B
07:42AM 52.0776 -0.5861 13° North 401 461 11,700 540 Climbing FlightAware ADS-B
07:42AM 52.0862 -0.5834 North 401 461 11,700 960 Level FlightAware ADS-B
07:42AM 52.0993 -0.5814 North 401 461 11,900 1,200 Climbing FlightAware ADS-B
07:42AM 52.1021 -0.5811 North 401 461 11,900 960 Level FlightAware ADS-B (EGTR / ETR)
07:42AM 52.1119 -0.5811 358° North 400 460 12,000 1,200 Climbing FlightAware ADS-B
07:42AM 52.1082 -0.5811 357° North 400 460 12,000 720 Level FlightAware ADS-B (EGLF / FAB)
07:42AM 52.1270 -0.5832 352° North 400 460 12,100 1,020 Climbing FlightAware ADS-B
07:42AM 52.1432 -0.5883 347° North 397 457 12,300 1,500 Climbing FlightAware ADS-B
07:42AM 52.1477 -0.5907 344° North 395 455 12,400 1,980 Climbing FlightAware ADS-B (EGNA)
07:42AM 52.1537 -0.5934 341° North 394 453 12,500 1,980 Climbing FlightAware ADS-B
07:43AM 52.1780 -0.6103 335° Northwest 390 449 13,000 2,220 Climbing FlightAware ADS-B
07:43AM 52.1670 -0.6019 337° Northwest 391 450 13,100 2,700 Climbing FlightAware ADS-B (EGKA / ESH)
07:43AM 52.2300 -0.6486 336° Northwest 401 461 14,400 2,700 Climbing FlightAware ADS-B
07:43AM 52.2357 -0.6522 336° Northwest 402 463 14,600 2,460 Climbing FlightAware ADS-B (EGHO)
07:44AM 52.2824 -0.6860 336° Northwest 410 472 15,700 2,820 Climbing FlightAware ADS-B
07:44AM 52.2967 -0.6976 335° Northwest 412 474 16,300 2,880 Climbing FlightAware ADS-B (EGLF / FAB)
07:44AM 52.3358 -0.7270 334° Northwest 413 475 17,200 2,160 Climbing FlightAware ADS-B
07:44AM 52.3436 -0.7337 335° Northwest 414 476 17,400 2,820 Climbing FlightAware ADS-B (EGTR / ETR)
07:45AM 52.3688 -0.7530 333° Northwest 416 479 18,100 2,700 Climbing FlightAware ADS-B
07:45AM 52.4207 -0.8009 330° Northwest 420 483 19,300 1,980 Climbing FlightAware ADS-B
07:45AM 52.4154 -0.7961 330° Northwest 420 483 19,200 2,460 Descending FlightAware ADS-B (EGTR / ETR)
07:45AM 52.4425 -0.8215 331° Northwest 425 489 19,800 2,460 Climbing FlightAware ADS-B (EGHO)
07:46AM 52.4957 -0.8698 330° Northwest 423 487 20,900 2,100 Climbing FlightAware ADS-B
07:46AM 52.5016 -0.8746 332° Northwest 438 504 21,000 1,800 Climbing FlightAware ADS-B (EGNA)
07:46AM 52.5190 -0.8902 332° Northwest 441 507 21,300 1,500 Climbing FlightAware ADS-B (EGHH / BOH)
07:46AM 52.5293 -0.8983 332° Northwest 439 505 21,400 1,860 Climbing FlightAware ADS-B (EGNR / CEG)
07:47AM 52.5750 -0.9409 331° Northwest 451 519 22,300 2,100 Climbing FlightAware ADS-B (EGTR / ETR)
07:47AM 52.6172 -0.9801 330° Northwest 455 524 23,100 1,980 Climbing FlightAware ADS-B
07:47AM 52.6357 -0.9972 330° Northwest 450 518 23,400 2,100 Climbing FlightAware ADS-B (EGNR / CEG)
07:47AM 52.6733 -1.0322 330° Northwest 460 529 24,200 2,160 Climbing FlightAware ADS-B
07:48AM 52.6910 -1.0498 330° Northwest 463 533 24,500 1,920 Climbing FlightAware ADS-B (EGCD)
07:48AM 52.7319 -1.0888 330° Northwest 467 537 25,200 1,980 Climbing FlightAware ADS-B
07:48AM 52.7478 -1.1030 330° Northwest 468 539 25,500 1,980 Climbing FlightAware ADS-B (EGCD)
07:48AM 52.7881 -1.1430 329° Northwest 470 541 26,200 2,100 Climbing FlightAware ADS-B
07:49AM 52.8104 -1.1651 329° Northwest 470 541 26,700 1,740 Climbing FlightAware ADS-B (EGCD)
07:49AM 52.8449 -1.1981 330° Northwest 475 547 27,100 2,220 Climbing FlightAware ADS-B
07:49AM 52.8553 -1.2090 330° Northwest 472 543 27,700 3,180 Climbing FlightAware ADS-B (EGCD)
07:49AM 52.8687 -1.2217 330° Northwest 470 541 27,800 2,640 Climbing FlightAware ADS-B (EGTR / ETR)
07:50AM 52.9127 -1.2659 328° Northwest 461 531 28,900 2,520 Climbing FlightAware ADS-B
07:50AM 52.9335 -1.2864 328° Northwest 461 531 29,300 1,140 Climbing FlightAware ADS-B (EGCD)
07:50AM 52.9586 -1.3126 328° Northwest 454 522 29,400 1,860 Climbing FlightAware ADS-B (EGOW)
07:50AM 52.9737 -1.3275 329° Northwest 460 529 30,000 2,580 Climbing FlightAware ADS-B
07:51AM 53.0139 -1.3693 329° Northwest 452 520 30,700 1,980 Climbing FlightAware ADS-B (EGHO)
07:51AM 53.0398 -1.3950 328° Northwest 458 527 31,200 1,740 Climbing FlightAware ADS-B
07:51AM 53.0563 -1.4116 329° Northwest 459 528 31,400 1,080 Climbing FlightAware ADS-B (EGLF / FAB)
07:51AM 53.0779 -1.4336 328° Northwest 452 520 31,600 1,320 Climbing FlightAware ADS-B (EGOW)
07:51AM 53.0962 -1.4518 328° Northwest 453 521 31,900 1,380 Climbing FlightAware ADS-B
07:51AM 53.1095 -1.4646 329° Northwest 459 528 32,000 660 Climbing FlightAware ADS-B
07:51AM 53.1135 -1.4701 328° Northwest 453 521 32,000  Level FlightAware ADS-B (EGOW)
07:52AM 53.1502 -1.5061 332° Northwest 463 533 32,000  Level FlightAware ADS-B
07:52AM 53.1676 -1.5202 335° Northwest 466 536 32,000  Level FlightAware ADS-B
07:52AM 53.1736 -1.5245 335° Northwest 460 529 32,000  Level FlightAware ADS-B
07:52AM 53.2356 -1.5700 336° Northwest 468 539 32,000  Level FlightAware ADS-B (EGBS)
07:53AM 53.2645 -1.5922 336° Northwest 469 540 32,000  Level FlightAware ADS-B
07:53AM 53.2645 -1.5922 336° Northwest 468 539 32,000  Level FlightAware ADS-B (EGTR / ETR)
07:53AM 53.3239 -1.6375 335° Northwest 468 539 32,000  Level FlightAware ADS-B
07:53AM 53.3259 -1.6391 334° Northwest 461 531 32,000  Level FlightAware ADS-B
07:53AM 53.3325 -1.6437 335° Northwest 468 539 32,000  Level FlightAware ADS-B (EGCC / MAN)
07:54AM 53.3839 -1.6859 334° Northwest 469 540 32,000  Level FlightAware ADS-B
07:54AM 53.3943 -1.6938 334° Northwest 468 539 32,000  Level FlightAware ADS-B
07:54AM 53.4434 -1.7333 334° Northwest 467 537 32,000  Level FlightAware ADS-B
07:54AM 53.4617 -1.7490 334° Northwest 467 537 32,000  Level FlightAware ADS-B (EGCC / MAN)
07:55AM 53.5034 -1.7824 334° Northwest 467 537 32,000  Level FlightAware ADS-B
07:55AM 53.5234 -1.7998 334° Northwest 466 536 32,000  Level FlightAware ADS-B (EGOW)
07:55AM 53.5626 -1.8316 334° Northwest 467 537 32,000  Level FlightAware ADS-B
07:55AM 53.5838 -1.8489 334° Northwest 467 537 32,000  Level FlightAware ADS-B (EGXU / HRT)
07:56AM 53.6441 -1.8982 334° Northwest 465 535 32,000  Level FlightAware ADS-B (EGXU / HRT)
07:56AM 53.7018 -1.9456 334° Northwest 465 535 32,000  Level FlightAware ADS-B (EGXU / HRT)
07:57AM 53.7622 -1.9948 334° Northwest 463 533 32,000  Level FlightAware ADS-B (EGNT / NCL)
07:57AM 53.7990 -2.0248 335° Northwest 464 534 32,000  Level FlightAware ADS-B (EGNT / NCL)
07:58AM 53.8662 -2.0793 335° Northwest 465 535 32,000  Level FlightAware ADS-B (EGCC / MAN)
07:58AM 53.9299 -2.1309 335° Northwest 464 534 32,000  Level FlightAware ADS-B (EGXW / WTN)
07:59AM 53.9868 -2.1763 335° Northwest 465 535 32,000  Level FlightAware ADS-B (EGNT / NCL)
07:59AM 54.0515 -2.2284 334° Northwest 467 537 32,000  Level FlightAware ADS-B (EGCC / MAN)
08:00AM 54.0576 -2.2347 334° Northwest 467 537 32,000  Level FlightAware ADS-B (EGNT / NCL)
08:00AM 54.1213 -2.2856 334° Northwest 467 537 32,000  Level FlightAware ADS-B (EGAA / BFS)
08:01AM 54.1811 -2.3349 334° Northwest 465 535 32,000  Level FlightAware ADS-B (EGCD)
08:01AM 54.2376 -2.3811 334° Northwest 465 535 32,000  Level FlightAware ADS-B (EGNT / NCL)
08:02AM 54.2837 -2.4199 334° Northwest 466 536 32,000  Level FlightAware ADS-B (EGNT / NCL)
08:02AM 54.3419 -2.4693 333° Northwest 465 535 32,000  Level FlightAware ADS-B (EGNT / NCL)
08:03AM 54.4034 -2.5239 333° Northwest 463 533 32,000  Level FlightAware ADS-B (EGPH / EDI)
08:03AM 54.4459 -2.5603 333° Northwest 463 533 32,000  Level FlightAware ADS-B (EGNT / NCL)
08:04AM 54.5259 -2.6295 333° Northwest 463 533 32,000  Level FlightAware ADS-B (EGPN / DND)
08:04AM 54.5942 -2.6889 333° Northwest 460 529 32,000  Level FlightAware ADS-B (EGXU / HRT)
08:05AM 54.6518 -2.7383 333° Northwest 457 526 32,000  Level FlightAware ADS-B (EGPH / EDI)
08:05AM 54.7263 -2.8039 333° Northwest 456 525 32,000  Level FlightAware ADS-B (EGPH / EDI)
08:06AM 54.7849 -2.8552 333° Northwest 457 526 32,000  Level FlightAware ADS-B (EGXU / HRT)
08:06AM 54.8379 -2.9014 333° Northwest 456 525 32,000  Level FlightAware ADS-B (EGNT / NCL)
08:07AM 54.9155 -2.9694 333° Northwest 454 522 32,000  Level FlightAware ADS-B (EGPK / PIK)
08:08AM 54.9730 -3.0208 333° Northwest 454 522 32,000  Level FlightAware ADS-B (EGPF / GLA)
08:08AM 55.0274 -3.0690 333° Northwest 455 524 32,000  Level FlightAware ADS-B (EGPF / GLA)
08:09AM 55.0867 -3.1224 333° Northwest 456 525 32,000  Level FlightAware ADS-B (EGPH / EDI)
08:09AM 55.1430 -3.1723 333° Northwest 454 522 32,000  Level FlightAware ADS-B (EGPF / GLA)
08:10AM 55.2049 -3.2275 333° Northwest 452 520 32,000  Level FlightAware ADS-B (EGAA / BFS)
08:10AM 55.2621 -3.2793 333° Northwest 451 519 32,000  Level FlightAware ADS-B (EGPH / EDI)
08:11AM 55.3238 -3.3347 333° Northwest 451 519 32,000  Level FlightAware ADS-B (EGPF / GLA)
08:11AM 55.3797 -3.3851 333° Northwest 452 520 32,000  Level FlightAware ADS-B (EGAA / BFS)
08:12AM 55.4388 -3.4390 333° Northwest 452 520 32,000  Level FlightAware ADS-B (EGPH / EDI)
08:12AM 55.5009 -3.4962 333° Northwest 450 518 32,000  Level FlightAware ADS-B (EGPG)
08:13AM 55.5571 -3.5468 333° Northwest 450 518 32,000  Level FlightAware ADS-B (EGPG)
08:13AM 55.6138 -3.5993 333° Northwest 449 517 32,000  Level FlightAware ADS-B (EGPN / DND)
08:14AM 55.6410 -3.6246 333° Northwest 448 516 32,000  Level FlightAware ADS-B (EGAA / BFS)
08:14AM 55.7002 -3.6788 333° Northwest 446 513 32,000  Level FlightAware ADS-B (EGPH / EDI)
08:15AM 55.7605 -3.7346 332° Northwest 446 513 32,000  Level FlightAware ADS-B (EGPG)
08:15AM 55.8164 -3.7870 332° Northwest 444 511 32,000  Level FlightAware ADS-B (EGPF / GLA)
08:16AM 55.8767 -3.8430 332° Northwest 444 511 32,000  Level FlightAware ADS-B (EGAA / BFS)
08:16AM 55.9492 -3.9110 332° Northwest 445 512 32,000  Level FlightAware ADS-B (EGAA / BFS)
08:17AM 56.0122 -3.9707 332° Northwest 445 512 32,000  Level FlightAware ADS-B (EGPG)
08:17AM 56.0668 -4.0222 332° Northwest 443 510 32,000  Level FlightAware ADS-B (EGPG)
08:18AM 56.1278 -4.0788 332° Northwest 438 504 32,000  Level FlightAware ADS-B (EGPK / PIK)
08:19AM 56.1814 -4.1305 332° Northwest 446 513 32,000 60 Level FlightAware ADS-B (EGPN / DND)
08:19AM 56.2525 -4.1982 332° Northwest 448 516 32,100 240 Climbing FlightAware ADS-B (EGPG)
08:19AM 56.2675 -4.2123 331° Northwest 441 507 32,200 1,200 Climbing FlightAware ADS-B (EGPK / PIK)
08:20AM 56.3196 -4.2629 332° Northwest 448 516 32,900 780 Climbing FlightAware ADS-B (EGAA / BFS)
08:20AM 56.3777 -4.3172 332° Northwest 447 514 33,000 60 Climbing FlightAware ADS-B (EGPH / EDI)
08:21AM 56.4224 -4.3609 331° Northwest 439 505 33,000  Level FlightAware ADS-B (EGPK / PIK)
08:21AM 56.4360 -4.3749 331° Northwest 439 505 33,000  Level FlightAware ADS-B (EGPD / ABZ)
08:21AM 56.4519 -4.3889 331° Northwest 439 505 33,000  Level FlightAware ADS-B (EGPK / PIK)
08:21AM 56.5059 -4.4416 332° Northwest 447 514 33,000 540 Level FlightAware ADS-B (EGAA / BFS)
08:22AM 56.5713 -4.5056 332° Northwest 447 514 33,600 1,080 Climbing FlightAware ADS-B (EGPH / EDI)
08:22AM 56.5847 -4.5180 331° Northwest 440 506 33,800 720 Climbing FlightAware ADS-B (EGPD / ABZ)
08:23AM 56.6257 -4.5588 332° Northwest 449 517 34,000 180 Climbing FlightAware ADS-B (EGAA / BFS)
08:23AM 56.6950 -4.6272 332° Northwest 456 525 34,000  Level FlightAware ADS-B (EGPF / GLA)
08:24AM 56.7546 -4.6853 332° Northwest 456 525 34,000  Level FlightAware ADS-B (EGPH / EDI)
08:24AM 56.8171 -4.7470 332° Northwest 456 525 34,000  Level FlightAware UK
08:24AM 56.8329 -4.7620 332° Northwest 455 524 34,000  Level FlightAware ADS-B (EGPF / GLA)
08:25AM 56.8882 -4.8170 332° Northwest 454 522 34,000  Level FlightAware ADS-B (EGPF / GLA)
08:26AM 56.9615 -4.8905 331° Northwest 455 524 34,000  Level FlightAware ADS-B (EGPF / GLA)
08:26AM 57.0277 -4.9567 331° Northwest 453 521 34,000  Level FlightAware ADS-B (EGPF / GLA)
08:27AM 57.1004 -5.0286 331° Northwest 452 520 34,000  Level FlightAware ADS-B (EGPH / EDI)
08:27AM 57.1622 -5.0912 331° Northwest 452 520 34,000  Level FlightAware ADS-B (EGPF / GLA)
08:28AM 57.2210 -5.1506 331° Northwest 452 520 34,000  Level FlightAware ADS-B (EGPN / DND)
08:29AM 57.2906 -5.2221 331° Northwest 450 518 34,000  Level FlightAware UK
08:29AM 57.3061 -5.2375 331° Northwest 448 516 34,000  Level FlightAware ADS-B (EGPH / EDI)
08:29AM 57.3780 -5.3114 331° Northwest 446 513 34,000  Level FlightAware ADS-B (EGPH / EDI)
08:30AM 57.4530 -5.3881 331° Northwest 446 513 34,000  Level FlightAware UK
08:30AM 57.4524 -5.3872 331° Northwest 446 513 34,000  Level FlightAware ADS-B (EGPH / EDI)
08:31AM 57.4913 -5.4262 331° Northwest 446 513 34,000  Level FlightAware ADS-B (EGPH / EDI)
08:31AM 57.6018 -5.5416 331° Northwest 445 512 34,000  Level FlightAware ADS-B (EGPH / EDI)
08:32AM 57.6755 -5.6184 331° Northwest 445 512 34,000  Level FlightAware ADS-B (EGPH / EDI)
08:33AM 57.7324 -5.6783 331° Northwest 446 513 34,000  Level FlightAware ADS-B (EGPF / GLA)
08:33AM 57.7874 -5.7358 331° Northwest 446 513 34,000  Level FlightAware UK
08:33AM 57.7945 -5.7427 323° Northwest 443 510 34,000  Level FlightAware ADS-B (EGPH / EDI)
08:34AM 57.8533 -5.8429 314° West 443 510 34,000  Level FlightAware ADS-B (EGPF / GLA)
08:34AM 57.8600 -5.8586 323° Northwest 444 511 34,000  Level FlightAware UK
08:34AM 57.8616 -5.8596 314° West 443 510 34,000  Level FlightAware ADS-B (EGPH / EDI)
08:35AM 57.9132 -5.9563 317° Northwest 442 509 34,000  Level FlightAware ADS-B (EGPF / GLA)
08:35AM 57.9794 -6.0703 318° Northwest 440 506 34,000  Level FlightAware ADS-B (EGPF / GLA)
08:36AM 58.0332 -6.1595 318° Northwest 438 504 34,000  Level FlightAware ADS-B (EGPH / EDI)
08:37AM 58.0898 -6.2563 318° Northwest 436 502 34,000  Level FlightAware ADS-B (EGPH / EDI)
08:37AM 58.1442 -6.3482 318° Northwest 436 502 34,000  Level FlightAware ADS-B (EGPF / GLA)
08:38AM 58.2000 -6.4510 316° Northwest 436 502 34,000  Level FlightAware ADS-B (EGPF / GLA)
08:38AM 58.2597 -6.5612 316° Northwest 438 504 34,000  Level FlightAware UK
08:39AM 58.3119 -6.6571 316° Northwest 436 502 34,000  Level FlightAware UK
08:40AM 58.3639 -6.7527 316° Northwest 438 504 34,000  Level FlightAware UK
08:40AM 58.4074 -6.8329 316° Northwest 438 504 34,000  Level FlightAware UK
08:41AM 58.4594 -6.9294 316° Northwest 436 502 34,000  Level FlightAware UK
08:41AM 58.5025 -7.0098 316° Northwest 434 499 34,000  Level FlightAware UK
08:42AM 58.5454 -7.0900 316° Northwest 432 497 34,000  Level FlightAware UK
08:42AM 58.5880 -7.1698 316° Northwest 430 495 34,000  Level FlightAware UK
08:43AM 58.6303 -7.2495 316° Northwest 428 493 34,000  Level FlightAware UK
08:43AM 58.6725 -7.3291 316° Northwest 428 493 34,000  Level FlightAware UK
08:44AM 58.7145 -7.4089 315° West 428 493 34,000  Level FlightAware UK
08:44AM 58.7563 -7.4890 315° West 426 490 34,000  Level FlightAware UK
08:45AM 58.7982 -7.5690 315° West 428 493 34,000  Level FlightAware UK
08:45AM 58.8400 -7.6494 315° West 428 493 34,000  Level FlightAware UK
08:46AM 58.8820 -7.7299 315° West 428 493 34,000  Level FlightAware UK
08:46AM 58.9321 -7.8266 315° West 430 495 34,000  Level FlightAware UK
08:47AM 58.9739 -7.9082 315° West 430 495 34,000  Level FlightAware UK
08:47AM 59.0159 -7.9899 315° West 432 497 34,000  Level FlightAware UK
08:48AM 59.0580 -8.0723 315° West 432 497 34,000  Level FlightAware UK
08:48AM 59.1000 -8.1549 315° West 432 497 34,000  Level FlightAware UK
08:49AM 59.1421 -8.2376 315° West 430 495 34,000  Level FlightAware UK
08:49AM 59.1839 -8.3203 315° West 432 497 34,000  Level FlightAware UK
08:50AM 59.2257 -8.4032 315° West 432 497 34,000  Level FlightAware UK
08:50AM 59.2674 -8.4865 314° West 432 497 34,000  Level FlightAware UK
08:51AM 59.3092 -8.5701 314° West 434 499 34,000  Level FlightAware UK
08:51AM 59.3511 -8.6539 314° West 434 499 34,000  Level FlightAware UK
08:52AM 59.3932 -8.7381 315° West 436 502 34,000  Level FlightAware UK
08:52AM 59.4354 -8.8232 314° West 438 504 34,000  Level FlightAware UK
08:53AM 59.4775 -8.9090 314° West 438 504 34,000  Level FlightAware UK
08:53AM 59.5195 -8.9957 314° West 440 506 34,000  Level FlightAware UK
08:55AM 59.6078 -9.2148 309° West  Level Estimated
09:02AM 60.1450 -10.5935 308° West  Level Estimated
09:03AM 60.2205 -10.7941 307° West  Level Estimated
09:04AM 60.2957 -10.9957 307° West  Level Estimated
09:05AM 60.3707 -11.1981 307° West  Level Estimated
09:06AM 60.4453 -11.4015 307° West  Level Estimated
09:07AM 60.5196 -11.6059 307° West  Level Estimated
09:08AM 60.5936 -11.8111 306° West  Level Estimated
09:09AM 60.6673 -12.0173 306° West  Level Estimated
09:10AM 60.7407 -12.2245 306° West  Level Estimated
09:11AM 60.8137 -12.4326 306° West  Level Estimated
09:12AM 60.8864 -12.6417 306° West  Level Estimated
09:13AM 60.9588 -12.8517 305° West  Level Estimated
09:14AM 61.0309 -13.0626 305° West  Level Estimated
09:15AM 61.1026 -13.2746 305° West  Level Estimated
09:16AM 61.1740 -13.4874 305° West  Level Estimated
09:17AM 61.2451 -13.7013 305° West  Level Estimated
09:18AM 61.3158 -13.9161 305° West  Level Estimated
09:19AM 61.3862 -14.1319 304° West  Level Estimated
09:20AM 61.4563 -14.3486 304° West  Level Estimated
09:21AM 61.5260 -14.5663 304° West  Level Estimated
09:22AM 61.5953 -14.7851 304° West  Level Estimated
09:23AM 61.6643 -15.0047 304° West  Level Estimated
09:24AM 61.7329 -15.2254 303° West  Level Estimated
09:25AM 61.8012 -15.4471 303° West  Level Estimated
09:26AM 61.8692 -15.6697 303° West  Level Estimated
09:27AM 61.9367 -15.8933 303° West  Level Estimated
09:28AM 62.0039 -16.1179 303° West  Level Estimated
09:29AM 62.0708 -16.3435 302° West  Level Estimated
09:30AM 62.1373 -16.5701 302° West  Level Estimated
09:31AM 62.2034 -16.7977 302° West  Level Estimated
09:32AM 62.2691 -17.0263 302° West  Level Estimated
09:33AM 62.3344 -17.2558 302° West  Level Estimated
09:34AM 62.3994 -17.4864 301° West  Level Estimated
09:35AM 62.4640 -17.7180 301° West  Level Estimated
09:36AM 62.5282 -17.9506 301° West  Level Estimated
09:37AM 62.5920 -18.1842 301° West  Level Estimated
09:38AM 62.6554 -18.4187 301° West  Level Estimated
09:39AM 62.7184 -18.6543 300° West  Level Estimated
09:40AM 62.7811 -18.8909 300° West  Level Estimated
09:41AM 62.8433 -19.1285 300° West  Level Estimated
09:42AM 62.9051 -19.3671 300° West  Level Estimated
09:43AM 62.9666 -19.6067 300° West  Level Estimated
09:44AM 63.0276 -19.8473 299° West  Level Estimated
09:45AM 63.0882 -20.0889 299° West  Level Estimated
09:46AM 63.1484 -20.3315 299° West  Level Estimated
09:47AM 63.2082 -20.5751 299° West  Level Estimated
09:48AM 63.2675 -20.8198 298° West  Level Estimated
09:49AM 63.3265 -21.0654 298° West  Level Estimated
09:50AM 63.3850 -21.3120 298° West  Level Estimated
09:51AM 63.4431 -21.5597 298° West  Level Estimated
09:52AM 63.5007 -21.8083 298° West  Level Estimated
09:53AM 63.5579 -22.0580 297° West  Level Estimated
09:54AM 63.6147 -22.3086 297° West  Level Estimated
09:55AM 63.6711 -22.5603 297° West  Level Estimated
09:56AM 63.7270 -22.8129 297° West  Level Estimated
09:57AM 63.7825 -23.0666 296° West  Level Estimated
09:58AM 63.8375 -23.3212 296° West  Level Estimated
09:59AM 63.8921 -23.5768 296° West  Level Estimated
10:00AM 63.9462 -23.8335 296° West  Level Estimated
10:01AM 63.9998 -24.0911 296° West  Level Estimated
10:02AM 64.0530 -24.3497 295° West  Level Estimated
10:03AM 64.1058 -24.6093 295° West  Level Estimated
10:04AM 64.1581 -24.8698 295° West  Level Estimated
10:05AM 64.2099 -25.1314 295° West  Level Estimated
10:06AM 64.2612 -25.3939 294° West  Level Estimated
10:07AM 64.3121 -25.6574 294° West  Level Estimated
10:08AM 64.3625 -25.9219 294° West  Level Estimated
10:09AM 64.4124 -26.1873 294° West  Level Estimated
10:10AM 64.4618 -26.4537 293° West  Level Estimated
10:11AM 64.5108 -26.7210 293° West  Level Estimated
10:12AM 64.5593 -26.9893 293° West  Level Estimated
10:13AM 64.6072 -27.2586 293° West  Level Estimated
10:14AM 64.6547 -27.5288 292° West  Level Estimated
10:15AM 64.7017 -27.7999 292° West  Level Estimated
10:16AM 64.7482 -28.0720 292° West  Level Estimated
10:17AM 64.7942 -28.3451 292° West  Level Estimated
10:18AM 64.8397 -28.6190 291° West  Level Estimated
10:19AM 64.8847 -28.8939 291° West  Level Estimated
10:20AM 64.9292 -29.1697 291° West  Level Estimated
10:21AM 64.9731 -29.4464 291° West  Level Estimated
10:22AM 65.0166 -29.7240 290° West  Level Estimated
10:23AM 65.0595 -30.0025 290° West  Level Estimated
10:24AM 65.1019 -30.2819 290° West  Level Estimated
10:25AM 65.1438 -30.5621 290° West  Level Estimated
10:26AM 65.1852 -30.8433 289° West  Level Estimated
10:27AM 65.2260 -31.1254 289° West  Level Estimated
10:28AM 65.2664 -31.4083 289° West  Level Estimated
10:29AM 65.3061 -31.6920 289° West  Level Estimated
10:30AM 65.3454 -31.9766 288° West  Level Estimated
10:31AM 65.3841 -32.2621 288° West  Level Estimated
10:32AM 65.4223 -32.5484 288° West  Level Estimated
10:33AM 65.4599 -32.8355 288° West  Level Estimated
10:34AM 65.4970 -33.1235 287° West  Level Estimated
10:35AM 65.5335 -33.4123 287° West  Level Estimated
10:36AM 65.5695 -33.7018 287° West  Level Estimated
10:37AM 65.6049 -33.9922 287° West  Level Estimated
10:38AM 65.6398 -34.2833 286° West  Level Estimated
10:39AM 65.6741 -34.5752 286° West  Level Estimated
10:40AM 65.7078 -34.8680 286° West  Level Estimated
10:41AM 65.7410 -35.1614 286° West  Level Estimated
10:42AM 65.7737 -35.4556 285° West  Level Estimated
10:43AM 65.8057 -35.7505 285° West  Level Estimated
10:44AM 65.8372 -36.0462 285° West  Level Estimated
10:45AM 65.8682 -36.3426 284° West  Level Estimated
10:46AM 65.8985 -36.6397 284° West  Level Estimated
10:47AM 65.9283 -36.9375 284° West  Level Estimated
10:48AM 65.9575 -37.2360 284° West  Level Estimated
10:49AM 65.9861 -37.5351 283° West  Level Estimated
10:50AM 66.0141 -37.8350 283° West  Level Estimated
10:51AM 66.0416 -38.1354 283° West  Level Estimated
10:52AM 66.0684 -38.4366 283° West  Level Estimated
10:53AM 66.0947 -38.7383 282° West  Level Estimated
10:54AM 66.1204 -39.0407 282° West  Level Estimated
10:55AM 66.1455 -39.3437 282° West  Level Estimated
10:56AM 66.1700 -39.6472 281° West  Level Estimated
10:57AM 66.1939 -39.9514 281° West  Level Estimated
10:58AM 66.2172 -40.2561 281° West  Level Estimated
10:59AM 66.2399 -40.5614 281° West  Level Estimated
11:00AM 66.2620 -40.8672 280° West  Level Estimated
11:01AM 66.2835 -41.1735 280° West  Level Estimated
11:02AM 66.3044 -41.4804 280° West  Level Estimated
11:03AM 66.3247 -41.7878 279° West  Level Estimated
11:04AM 66.3444 -42.0956 279° West  Level Estimated
11:05AM 66.3635 -42.4039 279° West  Level Estimated
11:06AM 66.3820 -42.7127 279° West  Level Estimated
11:07AM 66.3998 -43.0220 278° West  Level Estimated
11:08AM 66.4171 -43.3316 278° West  Level Estimated
11:09AM 66.4337 -43.6417 278° West  Level Estimated
11:10AM 66.4497 -43.9522 277° West  Level Estimated
11:11AM 66.4651 -44.2631 277° West  Level Estimated
11:12AM 66.4799 -44.5744 277° West  Level Estimated
11:13AM 66.4940 -44.8860 277° West  Level Estimated
11:14AM 66.5076 -45.1980 276° West  Level Estimated
11:15AM 66.5205 -45.5103 276° West  Level Estimated
11:16AM 66.5328 -45.8229 276° West  Level Estimated
11:17AM 66.5445 -46.1358 275° West  Level Estimated
11:18AM 66.5555 -46.4491 275° West  Level Estimated
11:19AM 66.5659 -46.7625 275° West  Level Estimated
11:20AM 66.5757 -47.0763 275° West  Level Estimated
11:21AM 66.5849 -47.3902 274° West  Level Estimated
11:22AM 66.5934 -47.7044 274° West  Level Estimated
11:23AM 66.6013 -48.0188 274° West  Level Estimated
11:24AM 66.6086 -48.3335 273° West  Level Estimated
11:25AM 66.6153 -48.6482 273° West  Level Estimated
11:26AM 66.6213 -48.9632 273° West  Level Estimated
11:27AM 66.6267 -49.2783 273° West  Level Estimated
11:28AM 66.6314 -49.5935 272° West  Level Estimated
11:29AM 66.6356 -49.9088 272° West  Level Estimated
11:30AM 66.6391 -50.2242 272° West  Level Estimated
11:31AM 66.6419 -50.5397 271° West  Level Estimated
11:32AM 66.6442 -50.8553 271° West  Level Estimated
11:33AM 66.6458 -51.1709 271° West  Level Estimated
11:34AM 66.6467 -51.4865 271° West  Level Estimated
11:35AM 66.6471 -51.8022 270° West  Level Estimated
11:36AM 66.6468 -52.1179 270° West  Level Estimated
11:37AM 66.6458 -52.4335 270° West  Level Estimated
11:38AM 66.6443 -52.7492 269° West  Level Estimated
11:39AM 66.6421 -53.0647 269° West  Level Estimated
11:40AM 66.6392 -53.3802 269° West  Level Estimated
11:41AM 66.6358 -53.6957 269° West  Level Estimated
11:42AM 66.6317 -54.0110 268° West  Level Estimated
11:43AM 66.6269 -54.3262 268° West  Level Estimated
11:44AM 66.6216 -54.6413 268° West  Level Estimated
11:45AM 66.6156 -54.9562 267° West  Level Estimated
11:46AM 66.6090 -55.2710 267° West  Level Estimated
11:47AM 66.6017 -55.5857 267° West  Level Estimated
11:48AM 66.5938 -55.9001 267° West  Level Estimated
11:49AM 66.5853 -56.2143 266° West  Level Estimated
11:50AM 66.5762 -56.5283 266° West  Level Estimated
11:51AM 66.5664 -56.8420 266° West  Level Estimated
11:52AM 66.5560 -57.1555 265° West  Level Estimated
11:53AM 66.5450 -57.4687 265° West  Level Estimated
11:54AM 66.5334 -57.7817 265° West  Level Estimated
11:55AM 66.5211 -58.0943 265° West  Level Estimated
11:56AM 66.5078 -58.4170 264° West  Level Estimated
11:57AM 66.4938 -58.7394 264° West  Level Estimated
11:58AM 66.4791 -59.0615 264° West  Level Estimated
11:59AM 66.4638 -59.3831 263° West  Level Estimated
12:00PM 66.4479 -59.7043 263° West  Level Estimated
12:01PM 66.4312 -60.0251 263° West  Level Estimated
12:02PM 66.4276 -60.3483 269° West  Level FlightAware Approximate
12:03PM 66.4232 -60.6713 268° West  Level FlightAware Approximate
12:04PM 66.4182 -60.9942 268° West  Level FlightAware Approximate
12:05PM 66.4126 -61.3170 268° West  Level FlightAware Approximate
12:06PM 66.4062 -61.6397 267° West  Level FlightAware Approximate
12:07PM 66.3992 -61.9621 267° West  Level FlightAware Approximate
12:08PM 66.3916 -62.2844 267° West  Level FlightAware Approximate
12:09PM 66.3833 -62.6065 266° West  Level FlightAware Approximate
12:10PM 66.3743 -62.9283 266° West  Level FlightAware Approximate
12:11PM 66.3611 -63.2613 260° West  Level FlightAware Approximate
12:12PM 66.3380 -63.5783 260° West  Level FlightAware Approximate
12:13PM 66.3143 -63.8948 260° West  Level FlightAware Approximate
12:14PM 66.2899 -64.2107 259° West  Level FlightAware Approximate
12:15PM 66.2649 -64.5259 259° West  Level FlightAware Approximate
12:16PM 66.2393 -64.8406 259° West  Level FlightAware Approximate
12:17PM 66.2130 -65.1545 258° West  Level FlightAware Approximate
12:18PM 66.1861 -65.4679 258° West  Level FlightAware Approximate
12:19PM 66.1585 -65.7805 258° West  Level FlightAware Approximate
12:20PM 66.1303 -66.0925 258° West  Level FlightAware Approximate
12:21PM 66.1015 -66.4037 257° West  Level FlightAware Approximate
12:21PM 66.6000 -68.3000 256° West 450 518 36,000  Level Edmonton Center
12:22PM 66.0721 -66.7142 257° West  Level FlightAware Approximate
12:22PM 66.5833 -68.6333 263° West 470 541 36,000  Level Edmonton Center
12:23PM 66.0420 -67.0240 257° West  Level FlightAware Approximate
12:23PM 66.5333 -68.9333 247° West 470 541 36,000  Level Edmonton Center
12:24PM 66.0114 -67.3331 256° West  Level FlightAware Approximate
12:24PM 66.5167 -69.2667 263° West 470 541 36,000  Level Edmonton Center
12:25PM 65.9801 -67.6415 256° West  Level FlightAware Approximate
12:25PM 66.5000 -69.5833 263° West 470 541 36,000  Level Edmonton Center
12:26PM 65.9482 -67.9490 256° West  Level FlightAware Approximate
12:26PM 66.4667 -69.8833 255° West 480 552 36,000  Level Edmonton Center
12:27PM 65.9157 -68.2558 256° West  Level FlightAware Approximate
12:27PM 66.4167 -70.2167 250° West 480 552 36,000  Level Edmonton Center
12:28PM 66.3667 -70.5333 249° West 450 518 36,000  Level Edmonton Center
12:29PM 66.3167 -70.8000 245° Southwest 480 552 36,000  Level Edmonton Center
12:30PM 66.2667 -71.1167 249° West 470 541 36,000  Level Edmonton Center
12:31PM 66.2167 -71.4167 248° West 470 541 36,000  Level Edmonton Center
12:32PM 66.1667 -71.6833 245° Southwest 470 541 36,000  Level Edmonton Center
12:33PM 66.1167 -72.0000 249° West 480 552 36,000  Level Edmonton Center
12:34PM 66.0500 -72.3167 243° Southwest 480 552 36,000  Level Edmonton Center
12:35PM 66.0167 -72.6167 255° West 480 552 36,000  Level Edmonton Center
12:36PM 65.9500 -72.9333 243° Southwest 470 541 36,000  Level Edmonton Center
12:37PM 65.8833 -73.1833 237° Southwest 480 552 36,000  Level Edmonton Center
12:38PM 65.8500 -73.4833 255° West 480 552 36,000  Level Edmonton Center
12:39PM 65.7833 -73.8000 243° Southwest 480 552 36,000  Level Edmonton Center
12:40PM 65.7167 -74.0500 237° Southwest 480 552 36,000  Level Edmonton Center
12:41PM 65.6667 -74.3500 248° West 480 552 36,000  Level Edmonton Center
12:42PM 65.6000 -74.6500 242° Southwest 480 552 36,000  Level Edmonton Center
12:43PM 65.5500 -74.9500 248° West 480 552 36,000  Level Edmonton Center
12:44PM 65.4833 -75.2500 242° Southwest 480 552 36,000  Level Edmonton Center
12:45PM 65.4333 -75.5000 244° Southwest 470 541 36,000  Level Edmonton Center
12:48PM 65.3239 -76.0700 246° West  Level FlightAware Approximate
12:55PM 64.9277 -78.0116 245° Southwest  Level FlightAware Approximate
12:56PM 64.8691 -78.2842 243° Southwest  Level FlightAware Approximate
12:57PM 64.8099 -78.5556 243° Southwest  Level FlightAware Approximate
12:58PM 64.7503 -78.8259 243° Southwest  Level FlightAware Approximate
12:59PM 64.6902 -79.0949 243° Southwest  Level FlightAware Approximate
01:00PM 64.6296 -79.3627 242° Southwest  Level FlightAware Approximate
01:01PM 64.5685 -79.6294 242° Southwest  Level FlightAware Approximate
01:02PM 64.5070 -79.8948 242° Southwest  Level FlightAware Approximate
01:03PM 64.4450 -80.1591 242° Southwest  Level FlightAware Approximate
01:04PM 64.3824 -80.4221 241° Southwest  Level FlightAware Approximate
01:05PM 64.3195 -80.6840 241° Southwest  Level FlightAware Approximate
01:06PM 64.2560 -80.9446 241° Southwest  Level FlightAware Approximate
01:07PM 64.1921 -81.2041 241° Southwest  Level FlightAware Approximate
01:08PM 64.1278 -81.4623 240° Southwest  Level FlightAware Approximate
01:09PM 64.0630 -81.7194 240° Southwest  Level FlightAware Approximate
01:10PM 63.9977 -81.9753 240° Southwest  Level FlightAware Approximate
01:11PM 63.9320 -82.2299 240° Southwest  Level FlightAware Approximate
01:12PM 63.8658 -82.4834 239° Southwest  Level FlightAware Approximate
01:13PM 63.7992 -82.7357 239° Southwest  Level FlightAware Approximate
01:14PM 63.7322 -82.9868 239° Southwest  Level FlightAware Approximate
01:15PM 63.6647 -83.2367 239° Southwest  Level FlightAware Approximate
01:16PM 63.5968 -83.4854 239° Southwest  Level FlightAware Approximate
01:17PM 63.5285 -83.7329 238° Southwest  Level FlightAware Approximate
01:18PM 63.4597 -83.9792 238° Southwest  Level FlightAware Approximate
01:19PM 63.3906 -84.2243 238° Southwest  Level FlightAware Approximate
01:20PM 63.3210 -84.4683 238° Southwest  Level FlightAware Approximate
01:21PM 63.2510 -84.7111 237° Southwest  Level FlightAware Approximate
01:22PM 63.1805 -84.9527 237° Southwest  Level FlightAware Approximate
01:23PM 63.1090 -85.1924 237° Southwest  Level FlightAware Approximate
01:24PM 63.0370 -85.4306 236° Southwest  Level FlightAware Approximate
01:25PM 62.9647 -85.6675 236° Southwest  Level FlightAware Approximate
01:26PM 62.8919 -85.9033 236° Southwest  Level FlightAware Approximate
01:27PM 62.8187 -86.1379 236° Southwest  Level FlightAware Approximate
01:28PM 62.7451 -86.3714 236° Southwest  Level FlightAware Approximate
01:29PM 62.6712 -86.6037 235° Southwest  Level FlightAware Approximate
01:30PM 62.5969 -86.8348 235° Southwest  Level FlightAware Approximate
01:31PM 62.5221 -87.0648 235° Southwest  Level FlightAware Approximate
01:32PM 62.4471 -87.2936 235° Southwest  Level FlightAware Approximate
01:33PM 62.3716 -87.5213 235° Southwest  Level FlightAware Approximate
01:34PM 62.2958 -87.7479 234° Southwest  Level FlightAware Approximate
01:35PM 62.2197 -87.9733 234° Southwest  Level FlightAware Approximate
01:36PM 62.1431 -88.1976 234° Southwest  Level FlightAware Approximate
01:37PM 62.0662 -88.4208 234° Southwest  Level FlightAware Approximate
01:38PM 61.9890 -88.6428 234° Southwest  Level FlightAware Approximate
01:39PM 61.9114 -88.8637 233° Southwest  Level FlightAware Approximate
01:40PM 61.8334 -89.0835 233° Southwest  Level FlightAware Approximate
01:41PM 61.7551 -89.3021 233° Southwest  Level FlightAware Approximate
01:42PM 61.6765 -89.5197 233° Southwest  Level FlightAware Approximate
01:43PM 61.5975 -89.7361 233° Southwest  Level FlightAware Approximate
01:44PM 61.5181 -89.9514 232° Southwest  Level FlightAware Approximate
01:45PM 61.4385 -90.1657 232° Southwest  Level FlightAware Approximate
01:46PM 61.3585 -90.3788 232° Southwest  Level FlightAware Approximate
01:47PM 61.2798 -90.5934 235° Southwest  Level FlightAware Approximate
01:48PM 61.2051 -90.8137 235° Southwest  Level FlightAware Approximate
01:49PM 61.1300 -91.0330 235° Southwest  Level FlightAware Approximate
01:50PM 61.0546 -91.2512 235° Southwest  Level FlightAware Approximate
01:51PM 60.9789 -91.4684 234° Southwest  Level FlightAware Approximate
01:52PM 60.9028 -91.6846 234° Southwest  Level FlightAware Approximate
01:53PM 60.8264 -91.8997 234° Southwest  Level FlightAware Approximate
01:54PM 60.7496 -92.1138 234° Southwest  Level FlightAware Approximate
01:55PM 60.6725 -92.3269 234° Southwest  Level FlightAware Approximate
01:56PM 60.5950 -92.5389 233° Southwest  Level FlightAware Approximate
01:57PM 60.5172 -92.7499 233° Southwest  Level FlightAware Approximate
01:58PM 60.4391 -92.9600 233° Southwest  Level FlightAware Approximate
01:59PM 60.3606 -93.1690 233° Southwest  Level FlightAware Approximate
02:00PM 60.2819 -93.3770 233° Southwest  Level FlightAware Approximate
02:01PM 60.2028 -93.5840 232° Southwest  Level FlightAware Approximate
02:02PM 60.1233 -93.7900 232° Southwest  Level FlightAware Approximate
02:03PM 60.0436 -93.9950 232° Southwest  Level FlightAware Approximate
02:04PM 59.9635 -94.1990 232° Southwest  Level FlightAware Approximate
02:05PM 59.8838 -94.4030 232° Southwest  Level FlightAware Approximate
02:06PM 59.8038 -94.6061 232° Southwest  Level FlightAware Approximate
02:07PM 59.7235 -94.8084 232° Southwest  Level FlightAware Approximate
02:07PM 59.4667 -95.2833 230° Southwest 470 541 38,000  Level Edmonton Center
02:08PM 59.6415 -95.0073 231° Southwest  Level Estimated
02:08PM 59.3833 -95.4667 228° Southwest 470 541 38,000  Level Edmonton Center
02:09PM 59.5592 -95.2052 231° Southwest  Level Estimated
02:09PM 59.3000 -95.7000 235° Southwest 470 541 38,000  Level Edmonton Center
02:10PM 59.4765 -95.4021 230° Southwest  Level Estimated
02:10PM 59.2167 -95.8833 228° Southwest 470 541 38,000  Level Edmonton Center
02:11PM 59.3936 -95.5981 230° Southwest  Level Estimated
02:11PM 59.1333 -96.1000 233° Southwest 470 541 38,000  Level Edmonton Center
02:12PM 59.3103 -95.7932 230° Southwest  Level Estimated
02:12PM 59.0500 -96.3000 231° Southwest 470 541 38,000  Level Edmonton Center
02:13PM 58.9667 -96.5167 233° Southwest 470 541 38,000  Level Edmonton Center
02:14PM 58.8833 -96.7000 229° Southwest 480 552 38,000  Level Edmonton Center
02:15PM 58.7833 -96.9167 228° Southwest 470 541 38,000  Level Edmonton Center
02:16PM 58.7167 -97.1000 235° Southwest 480 552 38,000  Level Edmonton Center
02:17PM 58.6167 -97.2833 224° Southwest 470 541 38,000  Level Edmonton Center
02:18PM 58.5333 -97.5000 234° Southwest 470 541 38,000  Level Edmonton Center
02:19PM 58.4500 -97.6833 229° Southwest 480 552 38,000  Level Edmonton Center
02:20PM 58.3500 -97.9000 229° Southwest 470 541 38,000  Level Edmonton Center
02:21PM 58.2833 -98.0833 235° Southwest 470 541 38,000  Level Edmonton Center
02:22PM 58.1833 -98.2833 227° Southwest 470 541 38,000  Level Edmonton Center
02:23PM 58.1000 -98.4667 229° Southwest 480 552 38,000  Level Edmonton Center
02:24PM 58.0000 -98.6833 229° Southwest 470 541 38,000  Level Edmonton Center
02:25PM 57.9333 -98.8500 233° Southwest 480 552 38,000  Level Edmonton Center
02:26PM 57.8333 -99.0667 229° Southwest 480 552 38,000  Level Edmonton Center
02:27PM 57.7333 -99.2333 222° Southwest 480 552 38,000  Level Edmonton Center
02:28PM 57.6500 -99.4333 232° Southwest 480 552 38,000  Level Edmonton Center
02:29PM 57.5667 -99.6167 230° Southwest 480 552 38,000  Level Edmonton Center
02:30PM 57.4833 -99.8167 232° Southwest 480 552 38,000  Level Edmonton Center
02:31PM 57.3833 -99.9833 222° Southwest 480 552 38,000  Level Edmonton Center
02:32PM 57.2833 -100.1500 222° Southwest 480 552 38,000  Level Edmonton Center
02:33PM 57.1833 -100.3500 227° Southwest 480 552 38,000  Level Edmonton Center
02:34PM 57.1167 -100.5167 234° Southwest 490 564 38,000  Level Edmonton Center
02:35PM 57.0167 -100.7167 227° Southwest 480 552 38,000  Level Edmonton Center
02:36PM 56.9167 -100.8833 222° Southwest 480 552 38,000  Level Edmonton Center
02:37PM 56.8333 -101.0833 233° Southwest 480 552 38,000  Level Edmonton Center
02:38PM 56.7333 -101.2833 228° Southwest 480 552 38,000  Level Edmonton Center
02:39PM 56.6500 -101.4667 230° Southwest 480 552 38,000  Level Edmonton Center
02:40PM 56.5500 -101.6667 228° Southwest 480 552 38,000  Level Edmonton Center
02:41PM 56.4667 -101.8333 228° Southwest 480 552 38,000  Level Edmonton Center
02:42PM 56.3833 -102.0167 231° Southwest 480 552 38,000  Level Edmonton Center
02:43PM 56.2833 -102.2167 228° Southwest 480 552 38,000  Level Edmonton Center
02:44PM 56.2000 -102.4000 231° Southwest 480 552 38,000  Level Edmonton Center
02:45PM 56.1000 -102.5667 223° Southwest 480 552 38,000  Level Edmonton Center
02:46PM 56.0167 -102.7500 231° Southwest 480 552 38,000  Level Edmonton Center
02:47PM 55.9167 -102.9333 226° Southwest 480 552 38,000  Level Edmonton Center
02:48PM 55.8333 -103.0833 225° Southwest 480 552 38,000  Level Edmonton Center
02:49PM 55.7333 -103.2833 228° Southwest 480 552 38,000  Level Edmonton Center
02:50PM 55.6333 -103.4667 226° Southwest 480 552 38,000  Level Edmonton Center
02:51PM 55.5500 -103.6167 226° Southwest 480 552 38,000  Level Edmonton Center
02:52PM 55.4500 -103.8000 226° Southwest 480 552 38,000  Level Edmonton Center
02:53PM 55.3667 -103.9500 226° Southwest 480 552 38,000  Level Edmonton Center
02:54PM 55.2667 -104.1333 226° Southwest 470 541 38,000  Level Edmonton Center
02:55PM 55.1667 -104.3167 226° Southwest 480 552 38,000  Level Edmonton Center
02:56PM 55.0833 -104.4833 229° Southwest 480 552 38,000  Level Edmonton Center
02:57PM 54.9833 -104.6333 221° Southwest 480 552 38,000  Level Edmonton Center
02:58PM 54.9000 -104.8167 232° Southwest 480 552 38,000  Level Edmonton Center
02:59PM 54.8000 -105.0000 227° Southwest 480 552 38,000  Level Edmonton Center
03:00PM 54.7167 -105.1333 223° Southwest 480 552 38,000  Level Edmonton Center
03:01PM 54.6167 -105.3167 227° Southwest 480 552 38,000  Level Edmonton Center
03:02PM 54.5167 -105.4833 224° Southwest 480 552 38,000  Level Edmonton Center
03:03PM 54.4333 -105.6667 232° Southwest 480 552 38,000  Level Edmonton Center
03:04PM 54.3333 -105.8000 218° Southwest 480 552 38,000  Level Edmonton Center
03:05PM 54.2333 -105.9833 227° Southwest 480 552 38,000  Level Edmonton Center
03:06PM 54.1333 -106.1167 218° Southwest 480 552 38,000  Level Edmonton Center
03:07PM 54.0500 -106.2833 230° Southwest 480 552 38,000  Level Edmonton Center
03:08PM 53.9500 -106.4667 227° Southwest 480 552 38,000  Level Edmonton Center
03:09PM 53.8667 -106.6333 230° Southwest 480 552 38,000  Level Edmonton Center
03:10PM 53.7500 -106.7667 214° Southwest 480 552 38,000  Level Edmonton Center
03:11PM 53.6500 -106.9333 225° Southwest 480 552 38,000  Level Edmonton Center
03:12PM 53.5667 -107.1000 230° Southwest 480 552 38,000  Level Edmonton Center
03:13PM 53.4667 -107.2667 225° Southwest 480 552 38,000  Level Edmonton Center
03:14PM 53.3667 -107.4000 219° Southwest 480 552 38,000  Level Edmonton Center
03:15PM 53.2667 -107.5667 225° Southwest 480 552 38,000  Level Edmonton Center
03:16PM 53.1833 -107.7333 230° Southwest 480 552 38,000  Level Edmonton Center
03:17PM 53.0667 -107.8833 218° Southwest 480 552 38,000  Level Edmonton Center
03:18PM 52.9667 -108.0167 219° Southwest 480 552 38,000  Level Edmonton Center
03:19PM 52.8667 -108.1833 225° Southwest 490 564 38,000  Level Edmonton Center
03:20PM 52.7667 -108.3500 225° Southwest 490 564 38,000  Level Edmonton Center
03:21PM 52.6667 -108.4833 219° Southwest 480 552 38,000  Level Edmonton Center
03:22PM 52.5667 -108.6333 222° Southwest 480 552 38,000  Level Edmonton Center
03:23PM 52.4667 -108.8000 225° Southwest 490 564 38,000  Level Edmonton Center
03:24PM 52.3667 -108.9500 223° Southwest 490 564 38,000  Level Edmonton Center
03:25PM 52.2667 -109.1000 223° Southwest 490 564 38,000  Level Edmonton Center
03:26PM 52.1500 -109.2667 221° Southwest 490 564 38,000  Level Edmonton Center
03:27PM 52.0667 -109.3833 221° Southwest 490 564 38,000  Level Edmonton Center
03:28PM 51.9500 -109.5500 221° Southwest 490 564 38,000  Level Edmonton Center
03:29PM 51.8500 -109.7000 223° Southwest 490 564 38,000  Level Edmonton Center
03:30PM 51.7500 -109.8167 216° Southwest 490 564 38,000  Level Edmonton Center
03:31PM 51.6500 -109.9667 223° Southwest 490 564 38,000  Level Edmonton Center
03:32PM 51.5333 -110.1167 219° Southwest 490 564 38,000  Level Edmonton Center
03:33PM 51.4333 -110.2667 223° Southwest 490 564 38,000  Level Edmonton Center
03:34PM 51.3333 -110.4000 220° Southwest 490 564 38,000  Level Edmonton Center
03:35PM 51.2333 -110.5500 223° Southwest 490 564 38,000  Level Edmonton Center
03:36PM 51.1167 -110.7000 219° Southwest 490 564 38,000  Level Edmonton Center
03:37PM 51.0167 -110.8333 220° Southwest 490 564 38,000  Level Edmonton Center
03:38PM 50.9167 -110.9833 223° Southwest 490 564 38,000  Level Edmonton Center
03:39PM 50.8167 -111.1167 220° Southwest 500 575 38,000  Level Edmonton Center
03:40PM 50.7000 -111.2500 216° Southwest 500 575 38,000  Level Edmonton Center
03:41PM 50.6000 -111.4000 224° Southwest 490 564 38,000  Level Edmonton Center
03:42PM 50.5000 -111.5500 224° Southwest 500 575 38,000  Level Edmonton Center
03:43PM 50.3833 -111.6833 216° Southwest 500 575 38,000  Level Edmonton Center
03:44PM 50.2833 -111.8333 224° Southwest 490 564 38,000  Level Edmonton Center
03:45PM 50.1667 -111.9667 216° Southwest 500 575 38,000  Level Edmonton Center
03:46PM 50.0833 -112.0833 222° Southwest 490 564 38,000  Level Edmonton Center
03:47PM 49.9667 -112.2333 220° Southwest 490 564 38,000  Level Edmonton Center
03:48PM 49.8500 -112.3667 216° Southwest 490 564 38,000  Level Edmonton Center
03:49PM 49.7500 -112.5000 221° Southwest 490 564 38,000  Level Edmonton Center
03:50PM 49.6333 -112.6500 220° Southwest 490 564 38,000  Level Edmonton Center
03:51PM 49.5333 -112.7833 221° Southwest 490 564 38,000  Level Edmonton Center
03:52PM 49.4333 -112.9167 221° Southwest 490 564 38,000  Level Edmonton Center
03:53PM 49.3333 -113.0667 224° Southwest 490 564 38,000  Level Edmonton Center
03:54PM 49.2333 -113.2167 224° Southwest 490 564 38,000  Level Edmonton Center
03:55PM 49.1333 -113.3667 224° Southwest 490 564 38,000  Level Edmonton Center
03:56PM 49.0333 -113.5000 221° Southwest 490 564 38,000  Level Edmonton Center
03:57PM 48.9333 -113.6333 221° Southwest 500 575 38,000  Level Edmonton Center
03:58PM 48.8333 -113.7667 221° Southwest 490 564 38,000  Level Edmonton Center
03:58PM 48.8175 -113.8269 248° West 495 570 38,000  Level Salt Lake Center
03:59PM 48.7156 -113.9683 222° Southwest 495 570 38,000  Level Salt Lake Center
04:00PM 48.5933 -114.1364 222° Southwest 496 571 38,000  Level Salt Lake Center
04:01PM 48.4908 -114.2758 222° Southwest 497 572 38,000  Level Salt Lake Center
04:02PM 48.3886 -114.4147 222° Southwest 498 573 38,000  Level Salt Lake Center
04:03PM 48.2864 -114.5528 222° Southwest 498 573 38,000  Level Seattle Center
04:04PM 48.2258 -114.6342 222° Southwest 498 573 38,000  Level Salt Lake Center
04:05PM 48.1247 -114.7694 222° Southwest 498 573 38,000  Level Salt Lake Center
04:06PM 48.0028 -114.9328 222° Southwest 498 573 38,000  Level Salt Lake Center
04:07PM 47.9011 -115.0686 222° Southwest 498 573 38,000  Level Salt Lake Center
04:08PM 47.7803 -115.1883 214° Southwest 531 611 38,000  Level Salt Lake Center
04:09PM 47.6975 -115.3358 230° Southwest 495 570 38,000  Level Salt Lake Center
04:10PM 47.5953 -115.4697 221° Southwest 493 567 38,000  Level Salt Lake Center
04:11PM 47.4944 -115.6008 221° Southwest 491 565 38,000  Level Salt Lake Center
04:12PM 47.3656 -115.7500 218° Southwest 491 565 38,000  Level Salt Lake Center
04:13PM 47.2550 -115.8678 216° Southwest 491 565 38,000  Level Salt Lake Center
04:14PM 47.1447 -115.9881 217° Southwest 492 566 38,000  Level Salt Lake Center
04:15PM 47.0417 -116.0964 216° Southwest 492 566 38,000  Level Salt Lake Center
04:16PM 46.9314 -116.2144 216° Southwest 493 567 38,000  Level Salt Lake Center
04:17PM 46.7978 -116.3569 216° Southwest 493 567 38,000  Level Salt Lake Center
04:18PM 46.6869 -116.4736 216° Southwest 493 567 38,000  Level Salt Lake Center
04:19PM 46.5744 -116.5917 216° Southwest 493 567 38,000  Level Salt Lake Center
04:20PM 46.4406 -116.7333 216° Southwest 497 572 38,000  Level Seattle Center
04:22PM 46.3283 -116.8481 215° Southwest 495 570 38,000  Level Seattle Center
04:23PM 46.2167 -116.9639 216° Southwest 495 570 38,000  Level Seattle Center
04:24PM 46.1050 -117.0769 215° Southwest 492 566 38,000  Level Seattle Center
04:25PM 45.9939 -117.1917 216° Southwest 491 565 38,000  Level Seattle Center
04:26PM 45.8831 -117.3044 215° Southwest 491 565 38,000  Level Seattle Center
04:27PM 45.7717 -117.4178 215° Southwest 491 565 38,000  Level Seattle Center
04:27PM 45.6667 -117.5219 215° Southwest 490 564 38,000  Level Seattle Center
04:28PM 45.5733 -117.6164 215° Southwest 490 564 38,000  Level Seattle Center
04:29PM 45.4394 -117.7497 215° Southwest 490 564 38,000  Level Seattle Center
04:30PM 45.3278 -117.8600 215° Southwest 490 564 38,000  Level Seattle Center
04:31PM 45.2164 -117.9711 215° Southwest 490 564 38,000  Level Seattle Center
04:32PM 45.1114 -118.0739 215° Southwest 489 563 38,000  Level Seattle Center
04:34PM 44.9936 -118.1889 215° Southwest 487 560 38,000  Level Seattle Center
04:35PM 44.8822 -118.2989 215° Southwest 487 560 38,000  Level Seattle Center
04:36PM 44.7703 -118.4064 214° Southwest 488 562 38,000  Level Seattle Center
04:37PM 44.6614 -118.5136 215° Southwest 483 556 38,000  Level Seattle Center
04:38PM 44.5500 -118.6208 214° Southwest 483 556 38,000  Level Seattle Center
04:39PM 44.4369 -118.7278 214° Southwest 484 557 38,000  Level Seattle Center
04:40PM 44.3228 -118.8364 214° Southwest 491 565 38,000  Level Seattle Center
04:41PM 44.2125 -118.9408 214° Southwest 486 559 38,000  Level Seattle Center
04:42PM 44.1017 -119.0439 214° Southwest 475 547 38,000  Level Seattle Center
04:43PM 43.9886 -119.1511 214° Southwest 485 558 38,000  Level Seattle Center
04:44PM 43.8761 -119.2558 214° Southwest 486 559 38,000  Level Seattle Center
04:45PM 43.7419 -119.3800 214° Southwest 486 559 38,000  Level Seattle Center
04:46PM 43.6292 -119.4831 213° Southwest 485 558 38,000  Level Seattle Center
04:47PM 43.5156 -119.5894 214° Southwest 491 565 38,000  Level Seattle Center
04:48PM 43.4017 -119.6925 213° Southwest 490 564 38,000  Level Seattle Center
04:49PM 43.2881 -119.7747 208° Southwest 496 571 38,000  Level Seattle Center
04:50PM 43.1644 -119.8553 205° Southwest 496 571 38,000  Level Seattle Center
04:51PM 43.0394 -119.9333 205° Southwest 494 568 38,000  Level Seattle Center
04:52PM 42.9131 -120.0128 205° Southwest 495 570 38,000  Level Seattle Center
04:53PM 42.7642 -120.1047 204° Southwest 494 568 38,000  Level Seattle Center
04:54PM 42.6417 -120.1833 205° Southwest 490 564 38,000  Level Seattle Center
04:55PM 42.5175 -120.2589 204° Southwest 490 564 38,000  Level Seattle Center
04:56PM 42.3931 -120.3347 204° Southwest 490 564 38,000  Level Seattle Center
04:57PM 42.2717 -120.4133 206° Southwest 486 559 38,000  Level Seattle Center
04:58PM 42.1486 -120.4903 205° Southwest 487 560 38,000  Level Seattle Center
04:59PM 42.0269 -120.5672 205° Southwest 486 559 38,000  Level Seattle Center
05:00PM 41.9019 -120.6436 204° Southwest 488 562 38,000  Level Seattle Center
05:01PM 41.7803 -120.7186 205° Southwest 482 555 38,000  Level Seattle Center
05:07PM 41.0180 -121.1819 205° Southwest 494 568 38,000  Level FlightAware ADS-B (KAHC)
05:07PM 40.9532 -121.2208 204° Southwest 496 571 38,000  Level FlightAware ADS-B (KAHC)
05:08PM 40.8713 -121.2697 204° Southwest 496 571 38,000  Level FlightAware ADS-B (KAHC)
05:09PM 40.7787 -121.3246 204° Southwest 496 571 38,000  Level FlightAware ADS-B (KAHC)
05:09PM 40.7149 -121.3633 204° Southwest 495 570 38,000  Level FlightAware ADS-B (KAHC)
05:10PM 40.6188 -121.4203 204° Southwest 493 567 38,000  Level FlightAware ADS-B (KAHC)
05:11PM 40.5585 -121.4561 204° Southwest 492 566 38,000  Level FlightAware ADS-B (KAHC)
05:11PM 40.4738 -121.5063 204° Southwest 490 564 38,000  Level FlightAware ADS-B (KAHC)
05:12PM 40.4130 -121.5417 204° Southwest 491 565 38,000  Level FlightAware ADS-B (KAHC)
05:12PM 40.3496 -121.5794 204° Southwest 490 564 38,000  Level FlightAware ADS-B (KAHC)
05:13PM 40.2884 -121.6147 204° Southwest 489 563 38,000  Level FlightAware ADS-B (KAHC)
05:13PM 40.2223 -121.6534 204° Southwest 489 563 38,000  Level FlightAware ADS-B (KAHC)
05:14PM 40.1583 -121.6908 204° Southwest 488 562 38,000  Level FlightAware ADS-B (KAHC)
05:15PM 39.9692 -121.8009 204° Southwest 483 556 38,000  Level FlightAware ADS-B (KAHC)
05:16PM 39.8937 -121.8447 204° Southwest 479 551 38,000  Level FlightAware ADS-B (KAHC)
05:17PM 39.8307 -121.8821 204° Southwest 476 548 38,000  Level FlightAware ADS-B (KAHC)
05:17PM 39.7662 -121.9192 204° Southwest 475 547 38,000  Level FlightAware ADS-B (KAHC)
05:18PM 39.6975 -121.9578 204° Southwest 475 547 38,000  Level Oakland Center
05:19PM 39.5772 -122.0289 205° Southwest 473 544 38,000  Level Oakland Center
05:20PM 39.4450 -122.1031 203° Southwest 472 543 38,000  Level Oakland Center
05:21PM 39.3250 -122.1719 204° Southwest 472 543 38,000 -840 Level Oakland Center
05:22PM 39.2100 -122.2378 204° Southwest 460 529 36,400 -1,860 Descending Oakland Center
05:23PM 39.0978 -122.3014 204° Southwest 446 513 34,300 -1,680 Descending Oakland Center
05:24PM 38.9850 -122.3647 204° Southwest 444 511 33,000 -1,860 Descending Oakland Center
05:25PM 38.8467 -122.4436 204° Southwest 454 522 30,500 -2,100 Descending Oakland Center
05:26PM 38.7339 -122.5064 203° Southwest 445 512 28,700 -1,800 Descending Oakland Center
05:27PM 38.6408 -122.5575 203° Southwest 427 491 26,900 -2,220 Descending Oakland Center
05:28PM 38.5139 -122.6289 204° Southwest 418 481 24,200 -2,340 Descending Oakland Center
05:29PM 38.4100 -122.6853 203° Southwest 410 472 22,200 -1,860 Descending Oakland Center
05:30PM 38.3086 -122.7411 203° Southwest 401 461 20,400 -1,800 Descending Oakland Center
05:35PM 37.8498 -122.6189 140° Southeast 302 348 11,000 -1,680 Descending FlightAware ADS-B (KPAO)
05:36PM 37.8195 -122.5870 140° Southeast 307 353 11,000  Level FlightAware ADS-B
05:37PM 37.7675 -122.5320 140° Southeast 307 353 11,000  Level FlightAware ADS-B
05:37PM 37.7622 -122.5257 140° Southeast 286 329 11,000  Level FlightAware ADS-B (KPAO)
05:37PM 37.7299 -122.4915 140° Southeast 283 326 11,000  Level FlightAware ADS-B (KPAO)
05:38PM 37.7083 -122.4690 140° Southeast 282 325 11,000  Level FlightAware ADS-B
05:38PM 37.6703 -122.4280 140° Southeast 285 328 11,000  Level FlightAware ADS-B
05:39PM 37.6396 -122.3950 140° Southeast 282 325 11,000  Level FlightAware ADS-B
05:39PM 37.6365 -122.3921 140° Southeast 283 326 11,000  Level FlightAware ADS-B (KPAO)
05:39PM 37.6187 -122.3750 149° Southeast 283 326 11,000  Level FlightAware ADS-B
05:39PM 37.6154 -122.3729 151° Southeast 282 325 11,000 -840 Level FlightAware ADS-B (KPAO)
05:40PM 37.5840 -122.3530 154° Southeast 275 316 10,600 -1,260 Descending FlightAware ADS-B
05:40PM 37.5580 -122.3370 154° Southeast 272 313 10,000 -1,560 Descending FlightAware ADS-B
05:40PM 37.5547 -122.3352 155° Southeast 270 311 9,900 -1,200 Descending FlightAware ADS-B (KPAO)
05:40PM 37.5412 -122.3270 155° Southeast 265 305 9,700 -1,440 Descending FlightAware ADS-B
05:40PM 37.5245 -122.3170 154° Southeast 260 299 9,300 -1,440 Descending FlightAware ADS-B
05:41PM 37.5081 -122.3070 154° Southeast 260 299 9,000 -600 Descending FlightAware ADS-B
05:41PM 37.4899 -122.2970 154° Southeast 270 311 9,000  Level FlightAware ADS-B
05:41PM 37.4716 -122.2850 154° Southeast 267 307 9,000  Level FlightAware ADS-B
05:42PM 37.4505 -122.2720 154° Southeast 263 303 9,000  Level FlightAware ADS-B
05:42PM 37.4342 -122.2620 154° Southeast 258 297 9,000  Level FlightAware ADS-B
05:42PM 37.4180 -122.2520 154° Southeast 257 296 9,000  Level FlightAware ADS-B
05:42PM 37.4017 -122.2430 154° Southeast 261 300 9,000  Level FlightAware ADS-B
05:43PM 37.4371 -122.2642 154° Southeast 261 300 9,000  Level FlightAware ADS-B (KPAO)
05:43PM 37.3849 -122.2330 154° Southeast 263 303 9,000  Level FlightAware ADS-B
05:43PM 37.3656 -122.2210 154° Southeast 265 305 9,000  Level FlightAware ADS-B
05:43PM 37.3603 -122.2170 156° South 266 306 9,000  Level FlightAware ADS-B
05:43PM 37.3558 -122.2150 160° South 265 305 9,000  Level FlightAware ADS-B
05:43PM 37.3514 -122.2140 167° South 265 305 9,000  Level FlightAware ADS-B
05:43PM 37.3445 -122.2130 174° South 263 303 9,000  Level FlightAware ADS-B
05:43PM 37.3383 -122.2130 184° South 260 299 9,000  Level FlightAware ADS-B
05:43PM 37.3336 -122.2140 190° South 257 296 9,000  Level FlightAware ADS-B
05:44PM 37.3160 -122.2190 194° South 254 292 9,000  Level FlightAware ADS-B
05:44PM 37.2978 -122.2250 194° South 255 293 9,000 -420 Level FlightAware ADS-B
05:44PM 37.2625 -122.2350 193° South 253 291 8,700 -540 Descending FlightAware ADS-B
05:45PM 37.2442 -122.2400 193° South 257 296 8,600 -600 Descending FlightAware ADS-B
05:45PM 37.2381 -122.2420 199° South 255 293 8,500 -720 Descending FlightAware ADS-B
05:45PM 37.2349 -122.2440 204° Southwest 254 292 8,500 -900 Level FlightAware ADS-B
05:45PM 37.2198 -122.2630 240° Southwest 247 284 8,200 -840 Descending FlightAware ADS-B
05:45PM 37.2162 -122.2790 264° West 240 276 8,100 -540 Descending FlightAware ADS-B
05:46PM 37.2182 -122.2950 289° West 234 269 8,000 -360 Descending FlightAware ADS-B
05:46PM 37.2218 -122.3020 302° West 231 266 8,000  Level FlightAware ADS-B
05:46PM 37.2247 -122.3070 312° West 231 266 8,000 -720 Level FlightAware ADS-B
05:47PM 37.3150 -122.3610 334° Northwest 228 262 6,900 -780 Descending FlightAware ADS-B
05:48PM 37.3306 -122.3710 334° Northwest 232 267 6,600 -1,140 Descending FlightAware ADS-B
05:48PM 37.3366 -122.3740 337° Northwest 233 268 6,500 -600 Descending FlightAware ADS-B
05:48PM 37.3405 -122.3760 341° North 233 268 6,500 -720 Level FlightAware ADS-B
05:48PM 37.3552 -122.3770 North 231 266 6,300 -600 Descending FlightAware ADS-B
05:48PM 37.3613 -122.3760 14° North 228 262 6,300 -300 Level FlightAware ADS-B
05:48PM 37.3782 -122.3690 17° North 228 262 6,200 -480 Descending FlightAware ADS-B
05:48PM 37.3865 -122.3660 21° North 228 262 6,100 -1,020 Descending FlightAware ADS-B
05:48PM 37.3902 -122.3640 25° Northeast 228 262 6,000 -900 Descending FlightAware ADS-B
05:49PM 37.3937 -122.3610 33° Northeast 229 264 6,000  Level FlightAware ADS-B
05:49PM 37.3969 -122.3570 44° Northeast 231 266 6,000  Level FlightAware ADS-B
05:49PM 37.3998 -122.3530 53° Northeast 233 268 6,000  Level FlightAware ADS-B
05:49PM 37.4033 -122.3450 63° Northeast 237 273 6,000  Level FlightAware ADS-B
05:49PM 37.4052 -122.3400 69° East 236 272 6,000  Level FlightAware ADS-B
05:49PM 37.4062 -122.3360 74° East 236 272 6,000  Level FlightAware ADS-B
05:49PM 37.4071 -122.3310 81° East 238 274 6,000  Level FlightAware ADS-B
05:49PM 37.4077 -122.3210 87° East 240 276 6,000  Level FlightAware ADS-B
05:49PM 37.4082 -122.3000 89° East 240 276 6,000  Level FlightAware ADS-B
05:50PM 37.4090 -122.2320 90° East 241 277 6,000  Level FlightAware ADS-B
05:50PM 37.4091 -122.2110 90° East 239 275 6,000  Level FlightAware ADS-B
05:51PM 37.4091 -122.1900 90° East 219 252 6,000  Level FlightAware ADS-B
05:51PM 37.4091 -122.1871 90° East 212 244 6,000  Level FlightAware ADS-B (KPAO)
05:51PM 37.4091 -122.1700 90° East 200 230 6,000  Level FlightAware ADS-B
05:51PM 37.4092 -122.1650 88° East 197 227 6,000  Level FlightAware ADS-B
05:51PM 37.4095 -122.1620 84° East 195 224 6,000  Level FlightAware ADS-B
05:51PM 37.4100 -122.1590 79° East 195 224 6,000  Level FlightAware ADS-B
05:51PM 37.4112 -122.1550 68° East 191 220 6,000  Level FlightAware ADS-B
05:51PM 37.4136 -122.1490 55° Northeast 188 216 6,000  Level FlightAware ADS-B
05:51PM 37.4092 -122.1690 90° East 199 229 6,000  Level FlightAware ADS-B (KPAO)
05:51PM 37.4158 -122.1460 45° Northeast 187 215 6,000  Level FlightAware ADS-B
05:51PM 37.4179 -122.1440 38° Northeast 186 214 6,000  Level FlightAware ADS-B
05:51PM 37.4211 -122.1410 30° Northeast 184 212 6,000  Level FlightAware ADS-B
05:52PM 37.4225 -122.1402 29° Northeast 184 212 6,000 -420 Level FlightAware ADS-B
05:52PM 37.4333 -122.1330 27° Northeast 181 208 5,900 -720 Descending FlightAware ADS-B
05:52PM 37.4422 -122.1280 28° Northeast 178 205 5,700 -960 Descending FlightAware ADS-B
05:52PM 37.4366 -122.1314 27° Northeast 180 207 5,700 -780 Level FlightAware ADS-B
05:52PM 37.4473 -122.1240 28° Northeast 178 205 5,600 -1,020 Descending FlightAware ADS-B
05:52PM 37.4610 -122.1200 360° North 181 208 5,300 -1,140 Descending FlightAware ADS-B
05:52PM 37.4651 -122.1210 348° North 180 207 5,200 -960 Descending FlightAware ADS-B
05:53PM 37.4714 -122.1240 336° Northwest 180 207 5,100 -1,140 Descending FlightAware ADS-B
05:53PM 37.4819 -122.1310 332° Northwest 180 207 4,800 -1,500 Descending FlightAware ADS-B
05:53PM 37.4930 -122.1380 332° Northwest 179 206 4,400 -1,740 Descending FlightAware ADS-B
05:53PM 37.4957 -122.1402 332° Northwest 181 208 4,200 -1,200 Descending FlightAware ADS-B (KPAO)
05:53PM 37.5044 -122.1460 332° Northwest 182 209 4,100 -1,200 Descending FlightAware ADS-B
05:54PM 37.5134 -122.1520 332° Northwest 185 213 3,800 -1,680 Descending FlightAware ADS-B
05:54PM 37.5214 -122.1570 330° Northwest 187 215 3,500 -1,620 Descending FlightAware ADS-B
05:54PM 37.5245 -122.1600 325° Northwest 188 216 3,400 -1,500 Descending FlightAware ADS-B
05:54PM 37.5267 -122.1620 321° Northwest 190 219 3,300 -900 Descending FlightAware ADS-B
05:54PM 37.5294 -122.1660 312° West 190 219 3,300 -720 Level FlightAware ADS-B
05:54PM 37.5320 -122.1700 306° West 190 219 3,200 -780 Descending FlightAware ADS-B
05:54PM 37.5336 -122.1730 303° West 189 217 3,200 -1,140 Level FlightAware ADS-B
05:54PM 37.5369 -122.1790 298° West 191 220 3,000 -1,200 Descending FlightAware ADS-B
05:54PM 37.5420 -122.1920 297° West 190 219 2,800 -900 Descending FlightAware ADS-B
05:55PM 37.5483 -122.2080 298° West 187 215 2,600 -960 Descending FlightAware ADS-B
05:55PM 37.5527 -122.2170 298° West 187 215 2,400 -960 Descending FlightAware ADS-B
05:55PM 37.5587 -122.2320 298° West 175 201 2,200 -1,020 Descending FlightAware ADS-B
05:55PM 37.5622 -122.2400 298° West 166 191 2,000 -960 Descending FlightAware ADS-B
05:55PM 37.5677 -122.2540 298° West 156 180 1,800 -900 Descending FlightAware ADS-B
05:56PM 37.5649 -122.2470 298° West 149 171 1,700 -840 Descending FlightAware ADS-B (KPAO)
05:56PM 37.5727 -122.2650 298° West 147 169 1,600 -720 Descending FlightAware ADS-B
05:56PM 37.5776 -122.2770 298° West 146 168 1,400 -780 Descending FlightAware ADS-B
05:56PM 37.5822 -122.2880 298° West 143 165 1,200 -780 Descending FlightAware ADS-B
05:56PM 37.5873 -122.3000 298° West 145 167 1,000 -780 Descending FlightAware ADS-B
05:57PM 37.5926 -122.3120 298° West 141 162 800 -720 Descending FlightAware ADS-B
05:57PM 37.5985 -122.3260 298° West 143 165 600 -720 Descending FlightAware ADS-B
05:57PM 37.6031 -122.3380 297° West 141 162 400 -720 Descending FlightAware ADS-B
05:58PM 37.6063 -122.3450 298° West 144 166 300 -720 Descending FlightAware ADS-B
05:58PM 37.6115 -122.3570 298° West 149 171 100 -720 Descending FlightAware ADS-B